LIBF/FOG METAR and TAF weather

Enter ICAO airport designator
Station Type Date Time Source
LIBF METAR 2020/04/03 15:50 UTC NOAA

LIBF 031550Z VRB02KT 9999 FEW060 11/04 Q1012


Station Type Date Time Source
LIBF Decoded METAR 2020/04/03 15:50 UTC NOAA

Station name not available
Apr 03, 2020 - 11:50 AM EDT / 2020.04.03 1550 UTC
Wind: Variable at 2 MPH (2 KT):0
Visibility: greater than 7 mile(s):0
Sky conditions: mostly clear
Temperature: 51 F (11 C)
Dew Point: 39 F (4 C)
Relative Humidity: 61%
Pressure (altimeter): 29.88 in. Hg (1012 hPa)
ob: LIBF 031550Z VRB02KT 9999 FEW060 11/04 Q1012
cycle: 16

Station Type Date Time Source
LIBF TAF 2015/04/03 06:00 UTC NOAA

TAF LIBF 030500Z 0306/0406 35014KT 9999 FEW030

Example: see airport list